Huvudsida
METAR-TAF:

METAR-TAF

Flygplatser :

Fua'amotos internationella flygplats

Tongatapu, Tonga

latitud: 21-14S, longitud: 175-09W, höjd: 38 m

Aktuellt väderrapport

Denna rapport gjordes för 47 minuter sedan, klockan 07:00 UTC
Stilla vind
Temperatur 24°C
Fuktighet 100%
Tryck 1014 hPa
Sikt 10 km eller mer

METAR: NFTF 220700Z 00000KT 9999 FEW0016 24/24 Q1014

Tid: 20:47 (07:47 UTC)

Väderprognos

Denna rapport gjordes för 2 timmar och 27 minuter sedan, klockan 05:20 UTC
Prognos gäller från 22 kl. 06 UTC till 23 kl. 06 UTC
Vind 10 kt från nord
Sikt 10 km eller mer
Spridda moln på en höjd av 1600 ft

TAF: NFTF 220520Z 2206/2306 01010KT 9999 SCT016

Aktuella väderrapporter och prognoser från 4000 flygplatser (METAR- och TAF-rapporter).

De tillgängliga stationerna syns som gula och röda prickar på kartan.

För musen över prickarna för att se namnen på stationerna.

Klicka sedan för att få väderrapporter och prognoser.

För att ändra kartan: Klicka på de gröna knapparna med ett svart kors på för att zooma in; den gröna knappen med ett streck på för att zooma ut; eller på de gröna pilarna för angränsande kartor.


METAR-TAF: